sensor_id;sensor_type;location;lat;lon;timestamp;P1;P2;P0
73825;PMS5003;64145;55.060;73.168;2022-12-07T00:01:24;12.00;12.00;4.50
73825;PMS5003;64145;55.060;73.168;2022-12-07T00:03:56;10.50;10.50;5.00
73825;PMS5003;64145;55.060;73.168;2022-12-07T00:06:38;12.00;10.50;3.00
73825;PMS5003;64145;55.060;73.168;2022-12-07T00:09:04;10.50;10.50;4.75
73825;PMS5003;64145;55.060;73.168;2022-12-07T00:11:30;11.75;10.50;5.00
73825;PMS5003;64145;55.060;73.168;2022-12-07T00:13:57;12.33;10.00;5.33
73825;PMS5003;64145;55.060;73.168;2022-12-07T00:16:33;14.00;12.00;6.00
73825;PMS5003;64145;55.060;73.168;2022-12-07T00:18:59;10.50;10.50;4.25
73825;PMS5003;64145;55.060;73.168;2022-12-07T00:21:29;12.33;12.00;5.00
73825;PMS5003;64145;55.060;73.168;2022-12-07T00:23:56;13.00;13.00;5.00
73825;PMS5003;64145;55.060;73.168;2022-12-07T00:26:33;12.00;11.00;4.00
73825;PMS5003;64145;55.060;73.168;2022-12-07T00:29:02;12.00;12.00;4.00
73825;PMS5003;64145;55.060;73.168;2022-12-07T00:31:33;14.00;11.00;4.00
73825;PMS5003;64145;55.060;73.168;2022-12-07T00:34:00;13.25;12.00;5.00
73825;PMS5003;64145;55.060;73.168;2022-12-07T00:36:26;14.00;13.00;5.00
73825;PMS5003;64145;55.060;73.168;2022-12-07T00:38:52;16.00;14.00;6.75
73825;PMS5003;64145;55.060;73.168;2022-12-07T00:41:28;16.00;13.00;7.00
73825;PMS5003;64145;55.060;73.168;2022-12-07T00:43:53;13.00;11.00;5.00
73825;PMS5003;64145;55.060;73.168;2022-12-07T00:46:19;13.00;11.33;5.00
73825;PMS5003;64145;55.060;73.168;2022-12-07T00:48:50;13.50;12.00;5.25
73825;PMS5003;64145;55.060;73.168;2022-12-07T00:51:25;12.00;11.00;4.00
73825;PMS5003;64145;55.060;73.168;2022-12-07T00:53:51;11.00;11.00;3.67
73825;PMS5003;64145;55.060;73.168;2022-12-07T00:56:23;10.50;9.50;5.00
73825;PMS5003;64145;55.060;73.168;2022-12-07T00:58:50;12.50;10.00;5.00
73825;PMS5003;64145;55.060;73.168;2022-12-07T01:01:20;14.00;11.25;5.00
73825;PMS5003;64145;55.060;73.168;2022-12-07T01:03:45;13.00;12.00;5.00
73825;PMS5003;64145;55.060;73.168;2022-12-07T01:06:13;14.00;13.67;7.67
73825;PMS5003;64145;55.060;73.168;2022-12-07T01:08:49;14.00;14.00;7.00
73825;PMS5003;64145;55.060;73.168;2022-12-07T01:11:20;12.00;11.00;5.00
73825;PMS5003;64145;55.060;73.168;2022-12-07T01:13:46;13.00;11.50;5.00
73825;PMS5003;64145;55.060;73.168;2022-12-07T01:16:14;18.75;16.75;9.00
73825;PMS5003;64145;55.060;73.168;2022-12-07T01:18:40;23.00;19.00;11.00
73825;PMS5003;64145;55.060;73.168;2022-12-07T01:21:07;18.00;18.00;10.50
73825;PMS5003;64145;55.060;73.168;2022-12-07T01:23:33;17.00;15.75;9.00
73825;PMS5003;64145;55.060;73.168;2022-12-07T01:26:00;14.00;12.00;5.50
73825;PMS5003;64145;55.060;73.168;2022-12-07T01:28:26;12.50;11.00;3.25
73825;PMS5003;64145;55.060;73.168;2022-12-07T01:31:00;13.00;11.00;4.50
73825;PMS5003;64145;55.060;73.168;2022-12-07T01:33:27;13.50;10.75;5.00
73825;PMS5003;64145;55.060;73.168;2022-12-07T01:36:07;15.75;13.25;7.00
73825;PMS5003;64145;55.060;73.168;2022-12-07T01:38:33;16.00;14.00;7.50
73825;PMS5003;64145;55.060;73.168;2022-12-07T01:41:00;17.33;15.00;7.00
73825;PMS5003;64145;55.060;73.168;2022-12-07T01:43:26;14.00;12.00;4.50
73825;PMS5003;64145;55.060;73.168;2022-12-07T01:45:52;13.00;12.50;5.00
73825;PMS5003;64145;55.060;73.168;2022-12-07T01:48:19;11.50;10.50;3.25
73825;PMS5003;64145;55.060;73.168;2022-12-07T01:50:47;11.00;10.50;3.00
73825;PMS5003;64145;55.060;73.168;2022-12-07T01:53:18;11.50;11.50;5.25
73825;PMS5003;64145;55.060;73.168;2022-12-07T01:55:45;16.25;14.50;8.00
73825;PMS5003;64145;55.060;73.168;2022-12-07T01:58:11;14.50;13.00;7.00
73825;PMS5003;64145;55.060;73.168;2022-12-07T02:00:38;18.50;16.00;9.00
73825;PMS5003;64145;55.060;73.168;2022-12-07T02:03:11;16.00;12.50;7.00
73825;PMS5003;64145;55.060;73.168;2022-12-07T02:05:40;12.00;10.50;4.50
73825;PMS5003;64145;55.060;73.168;2022-12-07T02:08:16;10.50;9.00;3.50
73825;PMS5003;64145;55.060;73.168;2022-12-07T02:10:42;10.50;10.00;3.00
73825;PMS5003;64145;55.060;73.168;2022-12-07T02:13:10;10.00;8.00;4.00
73825;PMS5003;64145;55.060;73.168;2022-12-07T02:23:57;23.00;19.00;11.00
73825;PMS5003;64145;55.060;73.168;2022-12-07T02:29:10;16.00;13.75;8.00
73825;PMS5003;64145;55.060;73.168;2022-12-07T02:31:39;12.00;10.00;3.00
73825;PMS5003;64145;55.060;73.168;2022-12-07T02:36:44;10.50;9.00;3.00
73825;PMS5003;64145;55.060;73.168;2022-12-07T02:39:18;9.00;9.00;3.75
73825;PMS5003;64145;55.060;73.168;2022-12-07T02:41:55;10.50;9.00;5.00
73825;PMS5003;64145;55.060;73.168;2022-12-07T02:44:27;14.00;10.50;4.50
73825;PMS5003;64145;55.060;73.168;2022-12-07T02:47:03;9.00;7.00;3.25
73825;PMS5003;64145;55.060;73.168;2022-12-07T02:49:30;10.50;9.00;5.00
73825;PMS5003;64145;55.060;73.168;2022-12-07T02:51:56;11.00;9.00;3.00
73825;PMS5003;64145;55.060;73.168;2022-12-07T02:54:21;10.00;9.00;4.00
73825;PMS5003;64145;55.060;73.168;2022-12-07T02:57:08;12.25;10.25;4.00
73825;PMS5003;64145;55.060;73.168;2022-12-07T02:59:54;12.00;10.00;4.00
73825;PMS5003;64145;55.060;73.168;2022-12-07T03:10:13;12.25;10.50;3.00
73825;PMS5003;64145;55.060;73.168;2022-12-07T03:12:44;12.50;10.50;5.00
73825;PMS5003;64145;55.060;73.168;2022-12-07T03:15:13;12.50;10.25;4.50
73825;PMS5003;64145;55.060;73.168;2022-12-07T03:17:40;10.50;9.00;4.75
73825;PMS5003;64145;55.060;73.168;2022-12-07T03:20:09;12.00;10.50;5.00
73825;PMS5003;64145;55.060;73.168;2022-12-07T03:22:37;12.00;11.75;5.00
73825;PMS5003;64145;55.060;73.168;2022-12-07T03:25:05;9.00;9.00;3.00
73825;PMS5003;64145;55.060;73.168;2022-12-07T03:27:41;9.75;7.50;3.25
73825;PMS5003;64145;55.060;73.168;2022-12-07T03:30:20;10.75;8.50;3.00
73825;PMS5003;64145;55.060;73.168;2022-12-07T03:32:54;12.00;9.00;3.50
73825;PMS5003;64145;55.060;73.168;2022-12-07T03:38:00;13.00;10.50;4.00
73825;PMS5003;64145;55.060;73.168;2022-12-07T03:40:32;11.50;10.50;4.00
73825;PMS5003;64145;55.060;73.168;2022-12-07T03:42:57;10.75;9.25;4.25
73825;PMS5003;64145;55.060;73.168;2022-12-07T03:45:32;12.50;11.50;4.50
73825;PMS5003;64145;55.060;73.168;2022-12-07T03:48:07;13.00;12.00;4.25
73825;PMS5003;64145;55.060;73.168;2022-12-07T03:50:42;10.75;10.00;4.50
73825;PMS5003;64145;55.060;73.168;2022-12-07T03:53:11;12.50;10.50;4.00
73825;PMS5003;64145;55.060;73.168;2022-12-07T03:55:39;11.00;10.00;3.00
73825;PMS5003;64145;55.060;73.168;2022-12-07T03:58:10;11.75;10.00;3.75
73825;PMS5003;64145;55.060;73.168;2022-12-07T04:00:40;13.50;11.00;4.00
73825;PMS5003;64145;55.060;73.168;2022-12-07T04:03:06;10.50;9.00;3.00
73825;PMS5003;64145;55.060;73.168;2022-12-07T04:05:36;10.50;10.00;3.25
73825;PMS5003;64145;55.060;73.168;2022-12-07T04:08:02;10.50;10.00;3.75
73825;PMS5003;64145;55.060;73.168;2022-12-07T04:10:28;12.00;11.00;4.00
73825;PMS5003;64145;55.060;73.168;2022-12-07T04:12:53;10.00;9.00;2.00
73825;PMS5003;64145;55.060;73.168;2022-12-07T04:15:19;9.00;7.00;2.67
73825;PMS5003;64145;55.060;73.168;2022-12-07T04:17:49;12.00;9.75;3.00
73825;PMS5003;64145;55.060;73.168;2022-12-07T04:20:15;9.00;7.00;3.00
73825;PMS5003;64145;55.060;73.168;2022-12-07T04:22:46;7.00;5.00;3.00
73825;PMS5003;64145;55.060;73.168;2022-12-07T04:25:12;9.33;6.00;3.00
73825;PMS5003;64145;55.060;73.168;2022-12-07T04:27:37;10.67;7.00;3.00
73825;PMS5003;64145;55.060;73.168;2022-12-07T04:30:13;9.00;7.00;4.00
73825;PMS5003;64145;55.060;73.168;2022-12-07T04:32:39;9.00;7.00;2.00
73825;PMS5003;64145;55.060;73.168;2022-12-07T04:35:04;6.00;5.00;3.00
73825;PMS5003;64145;55.060;73.168;2022-12-07T04:37:30;8.67;6.67;3.00
73825;PMS5003;64145;55.060;73.168;2022-12-07T04:39:57;7.50;6.00;3.00
73825;PMS5003;64145;55.060;73.168;2022-12-07T04:42:22;7.00;5.00;1.00
73825;PMS5003;64145;55.060;73.168;2022-12-07T04:44:48;7.00;5.00;3.00
73825;PMS5003;64145;55.060;73.168;2022-12-07T04:47:14;9.33;8.33;3.00
73825;PMS5003;64145;55.060;73.168;2022-12-07T04:49:39;9.00;8.00;2.00
73825;PMS5003;64145;55.060;73.168;2022-12-07T04:52:15;7.00;5.00;1.00
73825;PMS5003;64145;55.060;73.168;2022-12-07T04:54:43;6.75;4.50;1.75
73825;PMS5003;64145;55.060;73.168;2022-12-07T04:57:09;6.67;5.00;2.00
73825;PMS5003;64145;55.060;73.168;2022-12-07T04:59:35;5.00;4.00;1.00
73825;PMS5003;64145;55.060;73.168;2022-12-07T05:02:00;7.00;6.00;1.33
73825;PMS5003;64145;55.060;73.168;2022-12-07T05:04:30;7.00;6.50;2.50
73825;PMS5003;64145;55.060;73.168;2022-12-07T05:06:55;6.00;5.67;2.33
73825;PMS5003;64145;55.060;73.168;2022-12-07T05:09:21;7.67;7.00;4.00
73825;PMS5003;64145;55.060;73.168;2022-12-07T05:11:47;6.67;6.00;3.00
73825;PMS5003;64145;55.060;73.168;2022-12-07T05:14:22;5.00;4.75;2.00
73825;PMS5003;64145;55.060;73.168;2022-12-07T05:16:49;6.00;6.00;2.00
73825;PMS5003;64145;55.060;73.168;2022-12-07T05:19:15;5.00;5.00;3.00
73825;PMS5003;64145;55.060;73.168;2022-12-07T05:21:41;5.00;4.50;2.00
73825;PMS5003;64145;55.060;73.168;2022-12-07T05:24:07;5.00;5.00;2.00
73825;PMS5003;64145;55.060;73.168;2022-12-07T05:26:33;3.25;3.00;1.00
73825;PMS5003;64145;55.060;73.168;2022-12-07T05:28:59;3.00;3.00;1.50
73825;PMS5003;64145;55.060;73.168;2022-12-07T05:31:25;3.75;3.00;2.00
73825;PMS5003;64145;55.060;73.168;2022-12-07T05:33:51;5.00;3.25;1.00
73825;PMS5003;64145;55.060;73.168;2022-12-07T05:36:17;3.00;3.00;0.00
73825;PMS5003;64145;55.060;73.168;2022-12-07T05:38:42;3.00;3.00;0.67
73825;PMS5003;64145;55.060;73.168;2022-12-07T05:41:08;4.67;4.00;2.00
73825;PMS5003;64145;55.060;73.168;2022-12-07T05:43:54;6.25;4.25;2.00
73825;PMS5003;64145;55.060;73.168;2022-12-07T05:46:19;5.00;5.00;1.00
73825;PMS5003;64145;55.060;73.168;2022-12-07T05:48:45;6.00;5.00;3.00
73825;PMS5003;64145;55.060;73.168;2022-12-07T05:51:10;4.00;3.67;2.00
73825;PMS5003;64145;55.060;73.168;2022-12-07T05:53:41;3.00;3.00;1.00
73825;PMS5003;64145;55.060;73.168;2022-12-07T05:56:11;5.00;3.00;1.00
73825;PMS5003;64145;55.060;73.168;2022-12-07T05:58:47;5.50;2.25;1.00
73825;PMS5003;64145;55.060;73.168;2022-12-07T06:01:31;5.00;3.00;0.00
73825;PMS5003;64145;55.060;73.168;2022-12-07T06:03:56;3.00;3.00;1.00
73825;PMS5003;64145;55.060;73.168;2022-12-07T06:06:32;3.00;3.00;1.00
73825;PMS5003;64145;55.060;73.168;2022-12-07T06:08:58;4.00;3.00;1.00
73825;PMS5003;64145;55.060;73.168;2022-12-07T06:11:24;3.75;2.00;1.00
73825;PMS5003;64145;55.060;73.168;2022-12-07T06:14:08;3.00;3.00;1.00
73825;PMS5003;64145;55.060;73.168;2022-12-07T06:16:44;3.00;3.00;0.00
73825;PMS5003;64145;55.060;73.168;2022-12-07T06:19:09;2.33;2.00;1.00
73825;PMS5003;64145;55.060;73.168;2022-12-07T06:21:44;3.50;3.00;1.00
73825;PMS5003;64145;55.060;73.168;2022-12-07T06:24:13;4.67;3.00;2.00
73825;PMS5003;64145;55.060;73.168;2022-12-07T06:26:39;3.00;3.00;1.00
73825;PMS5003;64145;55.060;73.168;2022-12-07T06:29:05;4.33;4.00;2.00
73825;PMS5003;64145;55.060;73.168;2022-12-07T06:31:31;5.33;5.00;1.00
73825;PMS5003;64145;55.060;73.168;2022-12-07T06:34:00;3.00;3.00;1.00
73825;PMS5003;64145;55.060;73.168;2022-12-07T06:36:26;4.00;3.75;1.00
73825;PMS5003;64145;55.060;73.168;2022-12-07T06:38:52;3.67;3.00;1.00
73825;PMS5003;64145;55.060;73.168;2022-12-07T06:41:18;4.00;3.00;0.00
73825;PMS5003;64145;55.060;73.168;2022-12-07T06:43:43;3.00;3.00;0.00
73825;PMS5003;64145;55.060;73.168;2022-12-07T06:46:09;3.33;3.33;0.00
73825;PMS5003;64145;55.060;73.168;2022-12-07T06:48:34;3.00;3.00;1.00
73825;PMS5003;64145;55.060;73.168;2022-12-07T06:51:11;5.00;4.00;1.00
73825;PMS5003;64145;55.060;73.168;2022-12-07T06:53:36;5.00;5.00;3.00
73825;PMS5003;64145;55.060;73.168;2022-12-07T06:56:03;3.00;2.33;0.00
73825;PMS5003;64145;55.060;73.168;2022-12-07T06:58:29;3.00;2.00;0.00
73825;PMS5003;64145;55.060;73.168;2022-12-07T07:00:54;6.67;5.67;2.00
73825;PMS5003;64145;55.060;73.168;2022-12-07T07:03:27;6.00;5.00;3.00
73825;PMS5003;64145;55.060;73.168;2022-12-07T07:05:53;3.33;3.00;1.00
73825;PMS5003;64145;55.060;73.168;2022-12-07T07:08:23;3.00;2.00;1.00
73825;PMS5003;64145;55.060;73.168;2022-12-07T07:10:49;2.00;1.33;0.00
73825;PMS5003;64145;55.060;73.168;2022-12-07T07:13:22;1.50;1.00;0.00
73825;PMS5003;64145;55.060;73.168;2022-12-07T07:15:47;4.00;4.00;2.33
73825;PMS5003;64145;55.060;73.168;2022-12-07T07:18:13;4.00;3.00;1.00
73825;PMS5003;64145;55.060;73.168;2022-12-07T07:20:38;1.00;1.00;0.00
73825;PMS5003;64145;55.060;73.168;2022-12-07T07:23:09;3.00;3.00;0.75
73825;PMS5003;64145;55.060;73.168;2022-12-07T07:25:34;3.00;2.00;1.00
73825;PMS5003;64145;55.060;73.168;2022-12-07T07:28:00;2.00;2.00;0.00
73825;PMS5003;64145;55.060;73.168;2022-12-07T07:30:26;4.33;3.00;0.67
73825;PMS5003;64145;55.060;73.168;2022-12-07T07:32:56;5.50;4.00;2.00
73825;PMS5003;64145;55.060;73.168;2022-12-07T07:35:22;5.25;4.25;1.00
73825;PMS5003;64145;55.060;73.168;2022-12-07T07:37:49;2.50;2.00;0.00
73825;PMS5003;64145;55.060;73.168;2022-12-07T07:40:21;3.25;3.00;1.00
73825;PMS5003;64145;55.060;73.168;2022-12-07T07:42:47;2.67;2.00;0.00
73825;PMS5003;64145;55.060;73.168;2022-12-07T07:45:13;3.00;3.00;0.25
73825;PMS5003;64145;55.060;73.168;2022-12-07T07:47:39;5.00;5.00;1.00
73825;PMS5003;64145;55.060;73.168;2022-12-07T07:50:05;1.00;1.00;0.00
73825;PMS5003;64145;55.060;73.168;2022-12-07T07:52:30;3.00;2.00;0.75
73825;PMS5003;64145;55.060;73.168;2022-12-07T07:54:56;1.00;1.00;0.00
73825;PMS5003;64145;55.060;73.168;2022-12-07T07:57:22;3.67;3.67;1.00
73825;PMS5003;64145;55.060;73.168;2022-12-07T07:59:47;3.00;2.00;0.33
73825;PMS5003;64145;55.060;73.168;2022-12-07T08:02:23;2.00;1.25;0.00
73825;PMS5003;64145;55.060;73.168;2022-12-07T08:04:54;1.00;1.00;0.00
73825;PMS5003;64145;55.060;73.168;2022-12-07T08:07:19;1.00;0.00;0.00
73825;PMS5003;64145;55.060;73.168;2022-12-07T08:09:54;3.00;1.50;0.00
73825;PMS5003;64145;55.060;73.168;2022-12-07T08:12:19;1.00;1.00;0.00
73825;PMS5003;64145;55.060;73.168;2022-12-07T08:14:45;1.00;1.00;1.00
73825;PMS5003;64145;55.060;73.168;2022-12-07T08:17:11;3.00;2.00;1.00
73825;PMS5003;64145;55.060;73.168;2022-12-07T08:19:37;2.00;1.00;0.00
73825;PMS5003;64145;55.060;73.168;2022-12-07T08:22:12;1.00;1.00;0.00
73825;PMS5003;64145;55.060;73.168;2022-12-07T08:24:38;2.00;1.33;0.00
73825;PMS5003;64145;55.060;73.168;2022-12-07T08:27:03;4.00;2.00;0.00
73825;PMS5003;64145;55.060;73.168;2022-12-07T08:29:29;5.00;3.33;0.00
73825;PMS5003;64145;55.060;73.168;2022-12-07T08:31:59;2.00;2.00;0.00
73825;PMS5003;64145;55.060;73.168;2022-12-07T08:34:36;3.00;3.00;0.00
73825;PMS5003;64145;55.060;73.168;2022-12-07T08:37:02;2.00;2.00;0.00
73825;PMS5003;64145;55.060;73.168;2022-12-07T08:39:27;2.00;2.00;0.00
73825;PMS5003;64145;55.060;73.168;2022-12-07T08:41:58;1.50;1.50;0.00
73825;PMS5003;64145;55.060;73.168;2022-12-07T08:44:24;1.00;0.00;0.00
73825;PMS5003;64145;55.060;73.168;2022-12-07T08:47:07;1.50;0.00;0.00
73825;PMS5003;64145;55.060;73.168;2022-12-07T08:49:38;3.75;3.00;0.50
73825;PMS5003;64145;55.060;73.168;2022-12-07T08:52:04;2.00;2.00;0.00
73825;PMS5003;64145;55.060;73.168;2022-12-07T08:54:30;3.00;2.00;0.00
73825;PMS5003;64145;55.060;73.168;2022-12-07T08:56:58;1.00;1.00;0.00
73825;PMS5003;64145;55.060;73.168;2022-12-07T08:59:24;1.33;1.33;0.00
73825;PMS5003;64145;55.060;73.168;2022-12-07T09:01:50;1.33;1.00;0.00
73825;PMS5003;64145;55.060;73.168;2022-12-07T09:04:15;2.00;2.00;0.00
73825;PMS5003;64145;55.060;73.168;2022-12-07T09:06:41;5.33;3.67;0.00
73825;PMS5003;64145;55.060;73.168;2022-12-07T09:09:06;5.00;3.00;1.00
73825;PMS5003;64145;55.060;73.168;2022-12-07T09:11:33;3.00;3.00;0.00
73825;PMS5003;64145;55.060;73.168;2022-12-07T09:13:59;5.00;3.00;1.00
73825;PMS5003;64145;55.060;73.168;2022-12-07T09:16:35;3.00;2.00;1.00
73825;PMS5003;64145;55.060;73.168;2022-12-07T09:19:01;1.00;1.00;0.00
73825;PMS5003;64145;55.060;73.168;2022-12-07T09:21:27;10.00;7.00;3.00
73825;PMS5003;64145;55.060;73.168;2022-12-07T09:23:52;9.00;5.33;1.33
73825;PMS5003;64145;55.060;73.168;2022-12-07T09:26:18;18.00;15.33;7.33
73825;PMS5003;64145;55.060;73.168;2022-12-07T09:28:53;13.00;10.75;4.00
73825;PMS5003;64145;55.060;73.168;2022-12-07T09:31:25;4.75;4.00;0.75
73825;PMS5003;64145;55.060;73.168;2022-12-07T09:33:59;12.25;10.75;5.50
73825;PMS5003;64145;55.060;73.168;2022-12-07T09:36:35;10.25;7.75;3.00
73825;PMS5003;64145;55.060;73.168;2022-12-07T09:39:01;5.00;3.00;1.00
73825;PMS5003;64145;55.060;73.168;2022-12-07T09:41:28;5.00;3.00;1.00
73825;PMS5003;64145;55.060;73.168;2022-12-07T09:43:58;4.25;3.00;1.00
73825;PMS5003;64145;55.060;73.168;2022-12-07T09:46:25;3.00;3.00;1.00
73825;PMS5003;64145;55.060;73.168;2022-12-07T09:48:54;3.00;3.00;1.00
73825;PMS5003;64145;55.060;73.168;2022-12-07T09:51:20;3.00;2.33;0.00
73825;PMS5003;64145;55.060;73.168;2022-12-07T09:53:56;1.50;1.50;0.00
73825;PMS5003;64145;55.060;73.168;2022-12-07T09:56:23;5.75;5.50;3.00
73825;PMS5003;64145;55.060;73.168;2022-12-07T09:58:59;10.00;8.00;4.25
73825;PMS5003;64145;55.060;73.168;2022-12-07T10:01:30;9.00;7.00;2.00
73825;PMS5003;64145;55.060;73.168;2022-12-07T10:04:13;10.50;8.75;5.00
73825;PMS5003;64145;55.060;73.168;2022-12-07T10:06:39;8.00;7.00;2.50
73825;PMS5003;64145;55.060;73.168;2022-12-07T10:09:17;7.67;7.00;3.00
73825;PMS5003;64145;55.060;73.168;2022-12-07T10:11:58;7.00;5.25;3.00
73825;PMS5003;64145;55.060;73.168;2022-12-07T10:14:24;4.50;3.00;1.00
73825;PMS5003;64145;55.060;73.168;2022-12-07T10:17:21;3.75;3.00;1.00
73825;PMS5003;64145;55.060;73.168;2022-12-07T10:19:48;4.00;4.00;1.00
73825;PMS5003;64145;55.060;73.168;2022-12-07T10:22:15;6.67;6.00;2.00
73825;PMS5003;64145;55.060;73.168;2022-12-07T10:24:41;5.75;5.75;3.00
73825;PMS5003;64145;55.060;73.168;2022-12-07T10:27:21;5.00;4.25;1.00
73825;PMS5003;64145;55.060;73.168;2022-12-07T10:29:50;2.75;2.75;1.00
73825;PMS5003;64145;55.060;73.168;2022-12-07T10:34:44;5.00;3.00;1.00
73825;PMS5003;64145;55.060;73.168;2022-12-07T10:37:19;4.75;3.75;1.00
73825;PMS5003;64145;55.060;73.168;2022-12-07T10:39:52;5.00;5.00;1.00
73825;PMS5003;64145;55.060;73.168;2022-12-07T10:42:19;5.00;5.00;2.25
73825;PMS5003;64145;55.060;73.168;2022-12-07T10:44:46;8.75;8.75;5.00
73825;PMS5003;64145;55.060;73.168;2022-12-07T10:47:34;8.00;7.00;2.00
73825;PMS5003;64145;55.060;73.168;2022-12-07T10:50:05;7.00;6.00;3.00
73825;PMS5003;64145;55.060;73.168;2022-12-07T10:52:37;5.25;4.50;0.00
73825;PMS5003;64145;55.060;73.168;2022-12-07T10:58:35;5.00;5.00;1.00
73825;PMS5003;64145;55.060;73.168;2022-12-07T11:01:03;5.00;5.00;1.00
73825;PMS5003;64145;55.060;73.168;2022-12-07T11:03:36;6.00;4.75;1.00
73825;PMS5003;64145;55.060;73.168;2022-12-07T11:06:10;6.50;5.00;2.00
73825;PMS5003;64145;55.060;73.168;2022-12-07T11:11:47;7.00;7.00;3.00
73825;PMS5003;64145;55.060;73.168;2022-12-07T11:14:31;5.00;5.00;3.00
73825;PMS5003;64145;55.060;73.168;2022-12-07T11:17:48;7.00;5.00;3.00
73825;PMS5003;64145;55.060;73.168;2022-12-07T11:30:50;7.00;5.00;2.00
73825;PMS5003;64145;55.060;73.168;2022-12-07T11:33:17;9.00;7.00;2.00
73825;PMS5003;64145;55.060;73.168;2022-12-07T11:38:17;4.75;4.50;1.50
73825;PMS5003;64145;55.060;73.168;2022-12-07T11:40:50;9.50;7.50;3.00
73825;PMS5003;64145;55.060;73.168;2022-12-07T11:43:21;7.50;6.00;2.00
73825;PMS5003;64145;55.060;73.168;2022-12-07T11:45:55;9.00;7.00;2.50
73825;PMS5003;64145;55.060;73.168;2022-12-07T11:50:59;9.00;8.00;3.00
73825;PMS5003;64145;55.060;73.168;2022-12-07T11:55:55;10.50;9.00;4.00
73825;PMS5003;64145;55.060;73.168;2022-12-07T11:58:35;13.00;12.25;6.25
73825;PMS5003;64145;55.060;73.168;2022-12-07T12:06:37;9.75;7.75;3.50
73825;PMS5003;64145;55.060;73.168;2022-12-07T12:09:14;7.00;5.00;1.00
73825;PMS5003;64145;55.060;73.168;2022-12-07T12:19:35;9.00;8.00;3.00
73825;PMS5003;64145;55.060;73.168;2022-12-07T12:22:21;10.50;9.00;3.25
73825;PMS5003;64145;55.060;73.168;2022-12-07T12:24:49;13.00;11.00;4.50
73825;PMS5003;64145;55.060;73.168;2022-12-07T12:27:34;11.00;10.75;4.50
73825;PMS5003;64145;55.060;73.168;2022-12-07T12:30:01;11.00;11.00;4.00
73825;PMS5003;64145;55.060;73.168;2022-12-07T12:35:17;11.50;11.00;5.00
73825;PMS5003;64145;55.060;73.168;2022-12-07T12:37:45;10.75;9.00;4.25
73825;PMS5003;64145;55.060;73.168;2022-12-07T12:42:52;12.50;11.00;4.25
73825;PMS5003;64145;55.060;73.168;2022-12-07T12:45:28;10.00;10.00;3.00
73825;PMS5003;64145;55.060;73.168;2022-12-07T12:47:59;12.25;11.00;5.00
73825;PMS5003;64145;55.060;73.168;2022-12-07T12:50:26;14.00;12.00;5.00
73825;PMS5003;64145;55.060;73.168;2022-12-07T12:53:02;13.00;12.00;4.00
73825;PMS5003;64145;55.060;73.168;2022-12-07T12:56:00;14.00;12.00;5.00
73825;PMS5003;64145;55.060;73.168;2022-12-07T13:03:53;29.25;23.00;14.00
73825;PMS5003;64145;55.060;73.168;2022-12-07T13:08:57;27.25;22.75;14.00
73825;PMS5003;64145;55.060;73.168;2022-12-07T13:11:33;32.75;25.50;15.00
73825;PMS5003;64145;55.060;73.168;2022-12-07T13:16:55;22.00;19.00;12.00
73825;PMS5003;64145;55.060;73.168;2022-12-07T13:22:27;18.00;16.25;11.00
73825;PMS5003;64145;55.060;73.168;2022-12-07T13:25:05;18.00;16.25;11.00
73825;PMS5003;64145;55.060;73.168;2022-12-07T13:27:37;19.00;16.50;10.50
73825;PMS5003;64145;55.060;73.168;2022-12-07T13:30:22;16.50;14.50;10.00
73825;PMS5003;64145;55.060;73.168;2022-12-07T13:32:55;18.00;14.25;10.00
73825;PMS5003;64145;55.060;73.168;2022-12-07T13:35:33;18.00;15.00;10.00
73825;PMS5003;64145;55.060;73.168;2022-12-07T13:38:01;16.00;14.00;8.50
73825;PMS5003;64145;55.060;73.168;2022-12-07T13:40:27;18.75;16.00;8.50
73825;PMS5003;64145;55.060;73.168;2022-12-07T13:43:01;23.00;19.25;12.00
73825;PMS5003;64145;55.060;73.168;2022-12-07T13:45:28;24.25;20.00;12.00
73825;PMS5003;64145;55.060;73.168;2022-12-07T13:48:35;24.25;21.00;14.00
73825;PMS5003;64145;55.060;73.168;2022-12-07T13:50:59;24.50;21.00;14.00
73825;PMS5003;64145;55.060;73.168;2022-12-07T13:53:26;30.50;24.50;15.25
73825;PMS5003;64145;55.060;73.168;2022-12-07T13:55:58;30.50;24.00;16.00
73825;PMS5003;64145;55.060;73.168;2022-12-07T13:58:26;29.25;23.00;14.00
73825;PMS5003;64145;55.060;73.168;2022-12-07T14:00:52;28.00;23.00;15.00
73825;PMS5003;64145;55.060;73.168;2022-12-07T14:05:44;23.00;21.00;13.67
73825;PMS5003;64145;55.060;73.168;2022-12-07T14:10:36;22.67;19.33;12.00
73825;PMS5003;64145;55.060;73.168;2022-12-07T14:15:51;19.50;18.25;10.25
73825;PMS5003;64145;55.060;73.168;2022-12-07T14:21:03;21.00;18.00;11.00
73825;PMS5003;64145;55.060;73.168;2022-12-07T14:23:39;19.75;19.00;11.25
73825;PMS5003;64145;55.060;73.168;2022-12-07T14:26:11;21.25;20.00;12.00
73825;PMS5003;64145;55.060;73.168;2022-12-07T14:28:38;21.50;19.00;12.00
73825;PMS5003;64145;55.060;73.168;2022-12-07T14:31:16;24.50;20.50;12.50
73825;PMS5003;64145;55.060;73.168;2022-12-07T14:33:42;24.00;20.00;12.00
73825;PMS5003;64145;55.060;73.168;2022-12-07T14:36:13;22.00;19.50;12.00
73825;PMS5003;64145;55.060;73.168;2022-12-07T14:38:39;22.75;20.00;12.00
73825;PMS5003;64145;55.060;73.168;2022-12-07T14:41:16;23.25;19.50;12.00
73825;PMS5003;64145;55.060;73.168;2022-12-07T14:44:01;25.00;20.00;12.00
73825;PMS5003;64145;55.060;73.168;2022-12-07T14:46:32;21.00;20.00;11.00
73825;PMS5003;64145;55.060;73.168;2022-12-07T14:49:08;24.75;20.00;12.00
73825;PMS5003;64145;55.060;73.168;2022-12-07T14:51:35;24.67;20.33;12.00
73825;PMS5003;64145;55.060;73.168;2022-12-07T14:54:01;22.25;19.50;12.00
73825;PMS5003;64145;55.060;73.168;2022-12-07T14:56:31;22.25;19.00;12.00
73825;PMS5003;64145;55.060;73.168;2022-12-07T14:59:07;19.00;18.00;11.25
73825;PMS5003;64145;55.060;73.168;2022-12-07T15:01:32;22.50;20.50;12.00
73825;PMS5003;64145;55.060;73.168;2022-12-07T15:04:04;24.50;21.00;13.00
73825;PMS5003;64145;55.060;73.168;2022-12-07T15:06:29;25.67;21.00;12.00
73825;PMS5003;64145;55.060;73.168;2022-12-07T15:08:55;21.00;19.00;12.00
73825;PMS5003;64145;55.060;73.168;2022-12-07T15:11:21;21.00;19.00;12.00
73825;PMS5003;64145;55.060;73.168;2022-12-07T15:13:56;24.00;20.00;12.00
73825;PMS5003;64145;55.060;73.168;2022-12-07T15:16:41;22.00;20.00;12.00
73825;PMS5003;64145;55.060;73.168;2022-12-07T15:19:15;20.50;18.50;12.00
73825;PMS5003;64145;55.060;73.168;2022-12-07T15:21:41;20.25;17.25;10.00
73825;PMS5003;64145;55.060;73.168;2022-12-07T15:24:17;22.50;17.25;8.25
73825;PMS5003;64145;55.060;73.168;2022-12-07T15:26:42;19.00;16.33;9.00
73825;PMS5003;64145;55.060;73.168;2022-12-07T15:29:10;20.50;17.00;9.00
73825;PMS5003;64145;55.060;73.168;2022-12-07T15:31:42;22.00;18.25;10.00
73825;PMS5003;64145;55.060;73.168;2022-12-07T15:34:07;24.00;19.00;12.00
73825;PMS5003;64145;55.060;73.168;2022-12-07T15:36:34;21.00;17.00;12.00
73825;PMS5003;64145;55.060;73.168;2022-12-07T15:39:04;21.00;18.25;12.00
73825;PMS5003;64145;55.060;73.168;2022-12-07T15:41:30;19.00;18.00;12.00
73825;PMS5003;64145;55.060;73.168;2022-12-07T15:43:56;18.33;16.67;11.00
73825;PMS5003;64145;55.060;73.168;2022-12-07T15:46:50;21.25;18.50;12.00